x

Eastern Caribbean - 190 Nm Nne Of Curacao (42059) Wave Buoy

4:50am - Mon 21st Apr 2014 All times are AST. -4 hours from GMT.

  • Sig Wave height 6.9ft
  • Peak Period 7s
  • Average Period 5s
  • Wind
    20mph, 25mph gusts
  • Sea Temp 81°f
  • Air Temp 80°f
  • Sea Pressure 1013.5mb
  • Eastern Caribbean - 190 Nm Nne Of Curacao
  • Eastern Caribbean - 190 Nm Nne Of Curacao

More Historic Weather Station data

Upgrade to MSW Pro to gain access to the past 30 days of data for over 8000 Wavebouys and Weather Stations around the globe.

Join Pro

Comparision Forecast

View Surf forecast
   
Mon 04/21 4:50am 7ft 7s 5s 20 25 mph 1013.5mb 81f 80f
3:50am 7.5ft 8s 5s 18 25 mph 1013.4mb 81f 80f
2:50am 7ft 8s 5s 22 27 mph 1013.3mb 81f 80f
1:50am 7ft 8s 5s 22 27 mph 1013.9mb 81f 80f
12:50am 7ft 8s 5s 22 27 mph 1014.3mb 81f 80f
Sun 04/20 11:50pm 7ft 8s 5s 22 27 mph 1015mb 81f 80f
10:50pm 7ft 8s 5s 22 25 mph 1015.3mb 81f 81f
9:50pm 7ft 8s 5s 22 27 mph 1015.4mb 81f 81f
8:50pm 7ft 8s 6s 20 27 mph 1014.9mb 81f 81f
7:50pm 6ft 8s 5s 20 22 mph 1014.7mb 81f 81f
6:50pm 6.5ft 8s 5s 18 20 mph 1014.3mb 81f 81f
5:50pm 6ft 6s 5s 18 22 mph 1013.8mb 81f 81f
4:50pm 6ft 8s 5s 18 22 mph 1013.8mb 81f 81f
3:50pm 7ft 7s 6s 18 22 mph 1014.1mb 81f 81f
2:50pm 7ft 8s 5s 18 22 mph 1014.6mb 81f 81f
1:50pm 6.5ft 8s 5s 18 22 mph 1015.2mb 81f 81f
12:50pm 7ft 8s 6s 18 22 mph 1016.1mb 81f 81f
11:50am 7ft 8s 6s 18 22 mph 1016.7mb 81f 81f
10:50am 7ft 8s 5s 18 22 mph 1016.9mb 81f 81f
9:50am 7ft 8s 5s 20 22 mph 1016.8mb 81f 81f
8:50am 7ft 8s 5s 20 25 mph 1016.6mb 80f 81f
7:50am 6.5ft 8s 5s 22 27 mph 1015.8mb 80f 80f
6:50am 7ft 7s 5s 20 27 mph 1015.4mb 80f 80f
5:50am 7ft 8s 5s 20 27 mph 1014.9mb 80f 80f
4:50am 6.5ft 6s 5s 20 25 mph 1014.4mb 80f 80f
3:50am 7ft 8s 5s 22 25 mph 1014.2mb 80f 80f
2:50am 7ft 7s 5s 20 25 mph 1014.4mb 80f 80f
1:50am 7ft 8s 5s 20 25 mph 1014.7mb 80f 80f
12:50am 7ft 8s 5s 20 25 mph 1015.2mb 80f 80f
Sat 04/19 11:50pm 6.5ft 8s 5s 18 22 mph 1015.6mb 80f 80f
10:50pm 6.5ft 8s 5s 20 25 mph 1015.6mb 80f 80f
9:50pm 6.5ft 8s 5s 20 25 mph 1015.3mb 80f 80f
8:50pm 6.5ft 8s 5s 20 22 mph 1014.8mb 80f 80f
7:50pm 6ft 8s 5s 20 25 mph 1014mb 80f 80f
6:50pm 6.5ft 7s 5s 20 25 mph 1013.6mb 81f 80f
5:50pm 6.5ft 8s 5s 18 22 mph 1013.6mb 81f 80f
4:50pm 6ft 8s 5s 18 22 mph 1013.5mb 81f 81f
3:50pm 7ft 7s 5s 18 22 mph 1013.7mb 81f 81f
2:50pm 6ft 8s 5s 18 22 mph 1014mb 81f 81f
1:50pm 6ft 6s 5s 16 20 mph 1014.9mb 81f 81f
12:50pm 6.5ft 8s 5s 20 22 mph 1015.4mb 81f 80f
11:50am 6ft 8s 5s 18 22 mph 1015.9mb 80f 80f
10:50am 6.5ft 8s 5s 18 22 mph 1016.1mb 80f 80f
9:50am 6ft 8s 5s 18 22 mph 1016.3mb 80f 80f
8:50am 7ft 8s 5s 20 22 mph 1015.9mb 80f 80f
7:50am 7ft 8s 5s 20 25 mph 1015.5mb 80f 80f
6:50am 6.5ft 8s 5s 18 22 mph 1014.9mb 80f 80f
5:50am 7ft 8s 6s 18 20 mph 1014.6mb 80f 80f
4:50am 8ft 8s 6s 20 25 mph 1014.1mb 80f 80f
3:50am 7.5ft 8s 6s 18 22 mph 1013.9mb 80f 80f
2:50am 7ft 7s 5s 18 22 mph 1014mb 80f 80f
1:50am 7.5ft 8s 6s 20 27 mph 1014.4mb 80f 80f
12:50am 8ft 8s 6s 20 25 mph 1015.3mb 80f 80f
Fri 04/18 11:50pm 7ft 8s 5s 22 27 mph 1015.7mb 80f 80f
10:50pm 8ft 8s 6s 20 25 mph 1015.7mb 80f 80f
9:50pm 7ft 7s 6s 20 25 mph 1015.3mb 80f 80f
8:50pm 7ft 8s 6s 20 25 mph 1014.7mb 80f 80f
7:50pm 6.5ft 8s 5s 20 27 mph 1014.1mb 80f 80f
6:50pm 7ft 8s 5s 20 25 mph 1013.9mb 80f 80f
5:50pm 7ft 8s 5s 20 25 mph 1013.6mb 80f 80f
4:50pm 6.5ft 7s 5s 18 22 mph 1013.5mb 80f 81f
3:50pm 7ft 8s 5s 18 20 mph 1013.7mb 80f 81f
2:50pm 6ft 7s 5s 18 22 mph 1014mb 80f 81f
1:50pm 6.5ft 7s 5s 20 22 mph 1014.6mb 80f 81f
12:50pm 6ft 7s 5s 18 22 mph 1015.2mb 80f 81f
11:50am 6ft 7s 5s 18 22 mph 1015.2mb 80f 80f
10:50am 6ft 7s 5s 20 25 mph 1015.6mb 80f 78f
9:50am 6ft 7s 5s 18 22 mph 1015.6mb 80f 80f
8:50am 6ft 7s 5s 18 22 mph 1015.3mb 80f 80f
7:50am 6ft 7s 5s 25 31 mph 1014.6mb 80f 78f
6:50am 5.5ft 6s 5s 18 22 mph 1014.1mb 80f 79f
5:50am 6ft 6s 5s 20 25 mph 1013.6mb 80f 80f
4:50am 5.5ft 6s 4s 22 25 mph 1013.3mb 80f 80f
3:50am 6ft 6s 5s 20 25 mph 1013.4mb 80f 80f
2:50am 5ft 6s 4s 20 25 mph 1013.5mb 80f 80f
1:50am 4.5ft 6s 4s 18 22 mph 1014.1mb 80f 79f
12:50am 4.5ft 5s 4s 20 22 mph 1014.6mb 80f 80f
Thu 04/17 11:50pm 4ft 6s 4s 18 20 mph 1015.3mb 80f 80f
10:50pm 4ft 6s 4s 18 20 mph 1015.7mb 80f 80f
9:50pm 4.5ft 6s 4s 16 20 mph 1015.4mb 80f 80f
8:50pm 4ft 6s 4s 16 18 mph 1014.8mb 80f 80f
7:50pm 4.5ft 5s 4s 18 20 mph 1014.5mb 80f 80f
6:50pm 4.5ft 5s 5s 13 16 mph 1014.2mb 80f 80f
5:50pm 4.5ft 6s 5s 13 18 mph 1013.8mb 80f 81f
4:50pm 4.5ft 5s 5s 16 18 mph 1013.7mb 81f 81f
3:50pm 4.5ft 6s 5s 13 16 mph 1013.8mb 81f 81f
2:50pm 4.5ft 8s 5s 13 16 mph 1014.3mb 81f 80f
1:50pm 4ft 6s 4s 13 16 mph 1014.9mb 81f 80f
12:50pm 4ft 6s 4s 13 16 mph 1015.7mb 80f 80f
11:50am 4ft 5s 4s 16 18 mph 1016mb 80f 80f
10:50am 4ft 6s 4s 16 18 mph 1016.1mb 80f 80f